Time;durP1;ratioP1;P1;durP2;ratioP2;P2;SDS_P1;SDS_P2;PMS_P1;PMS_P2;Temp;Humidity;BMP_temperature;BMP_pressure;BME280_temperature;BME280_humidity;BME280_pressure;Samples;Min_cycle;Max_cycle;Signal;HPM_P1;HPM_P2
2022/09/29 03:38:48;;;;;;;;;;;;;;;6.44;100.00;98041.94;4997634;28;19933;-86
2022/09/29 03:41:14;;;;;;;;;;;;;;;6.49;100.00;98039.91;4993694;28;19925;-87
2022/09/29 03:43:40;;;;;;;;;;;;;;;6.48;100.00;98035.59;4994863;28;20265;-87
2022/09/29 03:46:05;;;;;;;;;;;;;;;6.54;100.00;98037.84;4994520;28;19917;-85
2022/09/29 03:48:32;;;;;;;;;;;;;;;6.57;100.00;98037.69;5012254;28;20028;-85
2022/09/29 03:50:58;;;;;;;;;;;;;;;6.60;100.00;98045.41;5010881;28;19925;-88
2022/09/29 03:53:23;;;;;;;;;;;;;;;6.64;100.00;98040.88;5011843;28;20281;-83
2022/09/29 03:55:49;;;;;;;;;;;;;;;6.64;100.00;98049.59;4994549;28;19925;-84
2022/09/29 03:58:15;;;;;;;;;;;;;;;6.62;100.00;98043.59;5010615;28;19964;-91
2022/09/29 04:00:40;;;;;;;;;;;;;;;6.67;100.00;98057.34;5011777;28;19918;-85
2022/09/29 04:03:05;;;;;;;;;;;;;;;6.68;100.00;98050.28;4993320;28;19922;-88
2022/09/29 04:05:31;;;;;;;;;;;;;;;6.68;100.00;98051.13;4992924;28;19976;-89
2022/09/29 04:07:56;;;;;;;;;;;;;;;6.76;100.00;98055.13;4993996;28;19925;-89
2022/09/29 04:10:21;;;;;;;;;;;;;;;6.74;100.00;98049.94;4993899;28;19929;-86
2022/09/29 04:12:49;;;;;;;;;;;;;;;6.78;100.00;98047.97;4994490;28;20075;-91
2022/09/29 04:15:15;;;;;;;;;;;;;;;6.77;100.00;98052.41;4992710;28;19918;-88
2022/09/29 04:17:40;;;;;;;;;;;;;;;6.83;100.00;98059.09;5011837;28;20292;-89
2022/09/29 04:20:06;;;;;;;;;;;;;;;6.81;100.00;98060.97;5010523;28;19944;-89
2022/09/29 04:22:32;;;;;;;;;;;;;;;6.06;100.00;98065.84;5012134;28;19917;-85
2022/09/29 04:24:57;;;;;;;;;;;;;;;5.66;100.00;98067.84;5011779;28;19941;-90
2022/09/29 04:27:22;;;;;;;;;;;;;;;5.37;100.00;98064.88;5011783;28;20351;-90
2022/09/29 04:29:48;;;;;;;;;;;;;;;5.20;100.00;98066.56;4994244;28;19917;-89
2022/09/29 04:32:13;;;;;;;;;;;;;;;5.24;100.00;98068.09;5011564;28;19921;-86
2022/09/29 04:34:38;;;;;;;;;;;;;;;5.00;100.00;98064.03;4994109;28;19918;-85
2022/09/29 04:37:06;;;;;;;;;;;;;;;4.96;100.00;98075.59;5013129;28;19921;-89
2022/09/29 04:39:31;;;;;;;;;;;;;;;4.89;100.00;98068.00;5015232;28;19929;-89
2022/09/29 04:41:56;;;;;;;;;;;;;;;4.80;100.00;98075.47;4997749;28;19921;-88
2022/09/29 04:44:23;;;;;;;;;;;;;;;4.80;100.00;98076.31;4997523;28;19967;-89
2022/09/29 04:46:52;;;;;;;;;;;;;;;4.71;100.00;98074.13;5015501;28;20345;-88
2022/09/29 04:49:58;;;;;;;;;;;;;;;4.75;100.00;98077.47;5015277;28;19917;-90
2022/09/29 04:52:23;;;;;;;;;;;;;;;4.64;100.00;98077.94;5014837;28;19925;-86
2022/09/29 04:54:50;;;;;;;;;;;;;;;4.63;100.00;98078.88;5015620;28;19968;-88
2022/09/29 04:57:16;;;;;;;;;;;;;;;4.63;100.00;98071.03;5014772;28;20462;-87
2022/09/29 07:59:23;;;;;;;;;;;;;;;4.57;100.00;98161.31;5000277;28;19932;-90
2022/09/29 08:01:49;;;;;;;;;;;;;;;4.47;100.00;98171.38;5002122;28;20024;-89
2022/09/29 08:04:14;;;;;;;;;;;;;;;4.59;100.00;98171.75;5002912;28;19960;-90
2022/09/29 08:06:41;;;;;;;;;;;;;;;4.69;100.00;98179.16;5003349;28;19924;-91
2022/09/29 08:09:07;;;;;;;;;;;;;;;4.57;100.00;98184.94;4985722;28;19919;-90
2022/09/29 08:11:35;;;;;;;;;;;;;;;4.43;100.00;98175.03;5004549;28;20280;-92
2022/09/29 08:14:01;;;;;;;;;;;;;;;4.49;100.00;98190.50;5006235;28;19918;-90
2022/09/29 08:16:26;;;;;;;;;;;;;;;4.57;100.00;98192.81;4988865;28;19972;-90
2022/09/29 08:18:53;;;;;;;;;;;;;;;4.55;100.00;98194.66;5005943;28;19925;-91
2022/09/29 08:21:19;;;;;;;;;;;;;;;4.59;100.00;98195.38;5005542;28;20364;-92
2022/09/29 08:23:44;;;;;;;;;;;;;;;4.65;100.00;98200.34;5006013;28;19925;-88
2022/09/29 08:26:11;;;;;;;;;;;;;;;4.68;100.00;98201.06;5004727;28;19920;-90
2022/09/29 08:28:37;;;;;;;;;;;;;;;4.67;100.00;98203.75;5004624;28;19917;-91
2022/09/29 08:31:03;;;;;;;;;;;;;;;4.60;100.00;98199.69;5005863;28;19925;-90
2022/09/29 08:33:29;;;;;;;;;;;;;;;4.58;100.00;98204.16;4988039;28;19918;-91
2022/09/29 08:35:58;;;;;;;;;;;;;;;4.63;100.00;98207.44;5005965;28;19925;-91
2022/09/29 08:38:26;;;;;;;;;;;;;;;4.63;100.00;98208.28;4988165;28;20376;-89
2022/09/29 08:40:54;;;;;;;;;;;;;;;4.72;100.00;98204.38;5003594;28;20442;-90
2022/09/29 08:43:23;;;;;;;;;;;;;;;4.72;100.00;98209.63;4988050;28;19921;-90
2022/09/29 08:45:55;;;;;;;;;;;;;;;4.77;100.00;98205.06;5003863;28;19926;-90
2022/09/29 08:48:22;;;;;;;;;;;;;;;4.93;100.00;98201.72;4988138;28;20088;-91
2022/09/29 08:51:05;;;;;;;;;;;;;;;4.87;100.00;98198.47;4987317;28;20373;-91
2022/09/29 08:53:32;;;;;;;;;;;;;;;4.81;100.00;98201.38;5005474;28;20056;-88
2022/09/29 08:56:12;;;;;;;;;;;;;;;4.80;100.00;98204.06;4985743;28;20235;-92
2022/09/29 08:58:37;;;;;;;;;;;;;;;4.87;100.00;98206.34;5005540;28;20008;-88
2022/09/29 09:01:14;;;;;;;;;;;;;;;5.00;100.00;98209.25;5005468;28;20020;-88
2022/09/29 09:03:40;;;;;;;;;;;;;;;4.98;100.00;98195.38;5003685;28;19921;-89
2022/09/29 09:06:12;;;;;;;;;;;;;;;4.91;100.00;98207.06;5005180;28;19959;-91
2022/09/29 09:08:37;;;;;;;;;;;;;;;4.93;100.00;98209.59;4988037;28;20395;-90
2022/09/29 09:11:21;;;;;;;;;;;;;;;5.00;100.00;98211.06;4985885;28;20004;-90
2022/09/29 09:14:23;;;;;;;;;;;;;;;;;;;;;
2022/09/29 09:20:00;;;;;;;;;;;;;;;5.27;100.00;98222.91;5516836;23;19930;-91
2022/09/29 09:22:55;;;;;;;;;;;;;;;;;;;;;
2022/09/29 09:25:35;;;;;;;;;;;;;;;13.04;100.00;98203.31;5003909;28;20558;-87
2022/09/29 09:28:22;;;;;;;;;;;;;;;13.56;100.00;98205.50;4983774;28;19925;-87
2022/09/29 09:30:59;;;;;;;;;;;;;;;7.43;100.00;98216.50;4987222;28;19925;-89
2022/09/29 09:33:40;;;;;;;;;;;;;;;6.45;100.00;98219.94;5005612;28;19922;-89
2022/09/29 09:36:18;;;;;;;;;;;;;;;6.41;100.00;98215.75;4986415;28;19922;-86
2022/09/29 09:38:47;;;;;;;;;;;;;;;5.98;100.00;98219.59;4985467;28;19952;-88
2022/09/29 09:41:16;;;;;;;;;;;;;;;5.84;100.00;98214.13;4984245;28;20308;-88
2022/09/29 09:43:44;;;;;;;;;;;;;;;5.72;100.00;98212.09;5005488;28;19921;-87
2022/09/29 09:46:22;;;;;;;;;;;;;;;5.65;100.00;98219.41;4984736;28;19930;-87
2022/09/29 09:49:03;;;;;;;;;;;;;;;5.53;100.00;98220.84;4987025;28;19971;-88
2022/09/29 09:51:59;;;;;;;;;;;;;;;5.56;100.00;98217.22;4986465;28;19928;-88
2022/09/29 09:54:43;;;;;;;;;;;;;;;5.48;100.00;98227.25;4985786;28;19926;-87
2022/09/29 09:57:12;;;;;;;;;;;;;;;5.45;100.00;98217.72;5002355;28;19945;-88
2022/09/29 09:59:42;;;;;;;;;;;;;;;5.44;100.00;98214.25;5003745;28;20360;-88
2022/09/29 10:02:28;;;;;;;;;;;;;;;5.40;100.00;98220.56;5003168;28;20371;-88
2022/09/29 10:04:56;;;;;;;;;;;;;;;5.44;100.00;98221.25;4986811;28;19948;-87
2022/09/29 10:07:41;;;;;;;;;;;;;;;;;;;;;
2022/09/29 10:13:03;;;;;;;;;;;;;;;5.35;100.00;98221.72;4993390;28;20321;-88
2022/09/29 10:15:44;;;;;;;;;;;;;;;5.35;100.00;98221.72;4986245;28;19921;-90
2022/09/29 10:21:21;;;;;;;;;;;;;;;5.30;100.00;98224.56;5067517;22;20301;-88
2022/09/29 10:23:50;;;;;;;;;;;;;;;5.32;100.00;98227.09;4976363;28;19980;-90
2022/09/29 10:26:21;;;;;;;;;;;;;;;5.36;100.00;98223.41;4985000;28;20408;-90
2022/09/29 10:28:57;;;;;;;;;;;;;;;5.33;100.00;98228.78;4975948;28;19925;-89
2022/09/29 10:31:26;;;;;;;;;;;;;;;5.34;100.00;98233.97;4984476;28;19918;-89
2022/09/29 10:34:20;;;;;;;;;;;;;;;5.32;100.00;98227.09;5155001;23;19926;-90
2022/09/29 10:36:49;;;;;;;;;;;;;;;5.34;100.00;98230.50;4918573;28;19923;-87
2022/09/29 10:39:29;;;;;;;;;;;;;;;5.30;100.00;98227.19;4981464;28;19918;-89
2022/09/29 10:41:54;;;;;;;;;;;;;;;5.27;100.00;98222.91;4982811;28;20361;-89
2022/09/29 10:44:20;;;;;;;;;;;;;;;5.31;100.00;98234.09;4965710;28;20023;-85
2022/09/29 10:47:00;;;;;;;;;;;;;;;;;;;;;
2022/09/29 10:49:33;;;;;;;;;;;;;;;5.27;100.00;98236.03;4982313;28;19940;-86
2022/09/29 10:52:03;;;;;;;;;;;;;;;5.27;100.00;98230.78;4965151;28;19922;-88
2022/09/29 10:54:35;;;;;;;;;;;;;;;5.32;100.00;98237.63;4966279;28;19922;-87
2022/09/29 10:57:11;;;;;;;;;;;;;;;5.34;100.00;98239.22;4964159;28;19918;-88
2022/09/29 10:59:51;;;;;;;;;;;;;;;5.23;100.00;98245.00;4983082;28;19918;-86
2022/09/29 11:02:29;;;;;;;;;;;;;;;5.20;100.00;98244.25;4982734;28;19918;-88
2022/09/29 11:04:56;;;;;;;;;;;;;;;5.26;100.00;98250.13;4965657;28;19917;-88
2022/09/29 11:07:42;;;;;;;;;;;;;;;5.20;100.00;98257.38;4965415;28;20408;-89
2022/09/29 11:13:16;;;;;;;;;;;;;;;5.24;100.00;98261.59;4967121;28;20337;-87
2022/09/29 11:15:41;;;;;;;;;;;;;;;5.20;100.00;98263.50;4980790;28;19922;-86
2022/09/29 11:21:20;;;;;;;;;;;;;;;5.23;100.00;98263.38;5021443;23;19931;-89
2022/09/29 11:24:11;;;;;;;;;;;;;;;5.24;100.00;98270.31;5023187;28;19925;-88
2022/09/29 11:26:37;;;;;;;;;;;;;;;5.21;100.00;98273.06;5018799;28;19967;-88
2022/09/29 11:29:25;;;;;;;;;;;;;;;5.22;100.00;98269.53;5040779;28;19917;-87
2022/09/29 11:32:03;;;;;;;;;;;;;;;5.18;100.00;98273.22;5039756;28;19921;-86
2022/09/29 11:34:28;;;;;;;;;;;;;;;5.19;100.00;98274.09;5031590;28;19921;-84
2022/09/29 11:36:53;;;;;;;;;;;;;;;5.17;100.00;98279.41;5039929;28;20816;-88
2022/09/29 11:40:11;;;;;;;;;;;;;;;5.10;100.00;98277.97;5023909;28;19955;-87
2022/09/29 11:42:48;;;;;;;;;;;;;;;5.15;100.00;98283.00;5035716;28;19921;-87
2022/09/29 11:45:20;;;;;;;;;;;;;;;5.16;100.00;98285.56;5022582;28;19921;-87
2022/09/29 11:47:45;;;;;;;;;;;;;;;5.09;100.00;98285.00;5039114;28;19992;-87
2022/09/29 11:50:17;;;;;;;;;;;;;;;5.16;100.00;98280.31;5040417;28;20020;-87
2022/09/29 11:52:46;;;;;;;;;;;;;;;5.19;100.00;98280.19;5031147;28;19920;-90
2022/09/29 11:55:30;;;;;;;;;;;;;;;5.19;100.00;98281.97;5023856;28;20127;-86
2022/09/29 11:58:03;;;;;;;;;;;;;;;5.17;100.00;98286.41;5022156;28;19921;-87
2022/09/29 12:00:47;;;;;;;;;;;;;;;5.20;100.00;98281.03;5039128;28;19924;-89
2022/09/29 12:03:22;;;;;;;;;;;;;;;5.20;100.00;98273.16;5023038;28;20120;-87
2022/09/29 12:06:06;;;;;;;;;;;;;;;5.24;100.00;98266.84;5022913;28;19971;-85
2022/09/29 12:08:31;;;;;;;;;;;;;;;5.21;100.00;98264.34;5022986;28;19988;-86
2022/09/29 12:14:06;;;;;;;;;;;;;;;5.17;100.00;98278.53;5039264;28;19948;-88
2022/09/29 12:16:38;;;;;;;;;;;;;;;5.23;100.00;98276.50;5024033;28;19950;-88
2022/09/29 12:19:09;;;;;;;;;;;;;;;5.17;100.00;98274.16;5022760;28;19924;-86
2022/09/29 12:21:39;;;;;;;;;;;;;;;5.25;100.00;98279.06;5020527;28;20284;-87
2022/09/29 12:24:09;;;;;;;;;;;;;;;5.23;100.00;98276.50;5031483;28;20331;-88
2022/09/29 12:26:37;;;;;;;;;;;;;;;5.16;100.00;98280.31;5019935;28;20011;-86
2022/09/29 12:29:07;;;;;;;;;;;;;;;5.13;100.00;98280.44;5021183;28;19971;-87
2022/09/29 12:31:42;;;;;;;;;;;;;;;5.13;100.00;98277.81;5021565;28;19921;-87
2022/09/29 12:34:12;;;;;;;;;;;;;;;5.21;100.00;98278.31;5030915;28;19917;-86
2022/09/29 12:36:44;;;;;;;;;;;;;;;5.19;100.00;98274.94;5021050;28;20336;-87
2022/09/29 12:39:28;;;;;;;;;;;;;;;5.15;100.00;98273.34;5031117;28;20011;-87
2022/09/29 12:42:16;;;;;;;;;;;;;;;5.17;100.00;98275.91;5029191;28;19917;-87
2022/09/29 12:45:02;;;;;;;;;;;;;;;5.14;100.00;98276.91;5013954;28;19921;-86
2022/09/29 12:47:38;;;;;;;;;;;;;;;5.19;100.00;98274.94;5021275;28;20276;-90
2022/09/29 12:50:22;;;;;;;;;;;;;;;5.19;100.00;98268.84;5021259;28;19920;-86
2022/09/29 12:52:56;;;;;;;;;;;;;;;5.22;100.00;98263.44;5031195;28;19975;-87
2022/09/29 12:55:41;;;;;;;;;;;;;;;5.20;100.00;98268.75;5031068;28;19923;-87
2022/09/29 12:58:11;;;;;;;;;;;;;;;5.21;100.00;98270.44;5022645;28;20368;-87
2022/09/29 13:00:40;;;;;;;;;;;;;;;5.18;100.00;98262.72;5024691;28;20374;-91
2022/09/29 13:03:08;;;;;;;;;;;;;;;5.14;100.00;98266.41;5034716;28;20011;-89
2022/09/29 13:06:04;;;;;;;;;;;;;;;5.16;100.00;98267.19;5024820;28;19975;-88
2022/09/29 13:08:39;;;;;;;;;;;;;;;5.18;100.00;98262.72;5034044;28;19960;-89
2022/09/29 13:11:23;;;;;;;;;;;;;;;5.17;100.00;98261.03;5033144;28;20293;-87
2022/09/29 13:14:06;;;;;;;;;;;;;;;5.15;100.00;98262.00;5034259;28;19921;-86
2022/09/29 13:16:46;;;;;;;;;;;;;;;5.22;100.00;98264.28;5034162;28;20392;-87
2022/09/29 13:19:20;;;;;;;;;;;;;;;5.25;100.00;98264.16;5024244;28;20012;-89
2022/09/29 13:21:55;;;;;;;;;;;;;;;5.24;100.00;98266.84;5014271;28;19929;-87
2022/09/29 13:24:23;;;;;;;;;;;;;;;5.22;100.00;98263.44;5013991;28;19925;-87
2022/09/29 13:27:01;;;;;;;;;;;;;;;5.20;100.00;98267.91;5018944;28;19928;-86
2022/09/29 13:29:29;;;;;;;;;;;;;;;5.20;100.00;98270.53;5006354;28;19917;-87
2022/09/29 13:31:55;;;;;;;;;;;;;;;5.25;100.00;98271.19;5017250;28;20395;-87
2022/09/29 13:34:26;;;;;;;;;;;;;;;5.19;100.00;98269.69;5014406;28;20388;-87
2022/09/29 13:37:04;;;;;;;;;;;;;;;5.18;100.00;98264.50;5014075;28;20360;-86
2022/09/29 13:39:29;;;;;;;;;;;;;;;5.19;100.00;98264.44;5014284;28;19929;-87
2022/09/29 13:41:55;;;;;;;;;;;;;;;5.21;100.00;98267.81;5004697;28;19917;-86
2022/09/29 13:44:22;;;;;;;;;;;;;;;5.23;100.00;98267.75;5005592;28;19929;-87
2022/09/29 13:46:48;;;;;;;;;;;;;;;5.19;100.00;98272.31;5024052;28;20360;-87
2022/09/29 13:49:17;;;;;;;;;;;;;;;5.23;100.00;98276.50;5019854;28;19937;-88
2022/09/29 13:51:48;;;;;;;;;;;;;;;5.20;100.00;98273.16;5023119;28;19917;-86
2022/09/29 13:54:20;;;;;;;;;;;;;;;5.19;100.00;98280.19;5015364;28;20358;-87
2022/09/29 13:56:59;;;;;;;;;;;;;;;5.18;100.00;98277.63;5017056;28;19984;-86
2022/09/29 13:59:25;;;;;;;;;;;;;;;5.17;100.00;98274.16;5010631;28;19921;-86
2022/09/29 14:01:51;;;;;;;;;;;;;;;5.13;100.00;98275.19;5011503;28;19921;-86
2022/09/29 14:04:35;;;;;;;;;;;;;;;5.21;100.00;98285.38;5004161;28;19924;-86
2022/09/29 14:07:02;;;;;;;;;;;;;;;5.17;100.00;98281.16;5004188;28;19918;-86
2022/09/29 14:09:34;;;;;;;;;;;;;;;5.19;100.00;98284.59;5012472;28;19988;-86
2022/09/29 14:12:01;;;;;;;;;;;;;;;5.16;100.00;98285.56;5004401;28;19940;-87
2022/09/29 14:14:32;;;;;;;;;;;;;;;5.12;100.00;98278.75;5005138;28;19917;-85
2022/09/29 14:17:00;;;;;;;;;;;;;;;5.03;100.00;98280.00;5003369;28;19918;-85
2022/09/29 14:19:44;;;;;;;;;;;;;;;5.08;100.00;98274.56;5006052;28;19917;-85
2022/09/29 14:22:25;;;;;;;;;;;;;;;5.06;100.00;98279.03;5043012;28;20395;-83
2022/09/29 14:24:51;;;;;;;;;;;;;;;5.13;100.00;98283.06;5036511;28;20482;-85
2022/09/29 14:27:18;;;;;;;;;;;;;;;5.12;100.00;98285.78;5030974;28;20148;-84
2022/09/29 14:29:58;;;;;;;;;;;;;;;5.08;100.00;98293.78;5034461;28;19925;-86
2022/09/29 14:32:32;;;;;;;;;;;;;;;5.12;100.00;98289.25;5034037;28;20410;-86
2022/09/29 14:34:59;;;;;;;;;;;;;;;5.16;100.00;98297.84;5032776;28;20275;-84
2022/09/29 14:37:27;;;;;;;;;;;;;;;5.10;100.00;98293.72;5023153;28;19921;-87
2022/09/29 14:42:38;;;;;;;;;;;;;;;5.09;100.00;98292.03;5031990;28;19928;-88
2022/09/29 14:53:34;;;;;;;;;;;;;;;5.06;100.00;98289.53;5032659;28;19924;-84
2022/09/29 14:56:18;;;;;;;;;;;;;;;5.03;100.00;98297.53;5021179;28;20027;-86
2022/09/29 14:59:07;;;;;;;;;;;;;;;5.06;100.00;98294.78;5038435;28;19979;-83
2022/09/29 15:01:35;;;;;;;;;;;;;;;5.09;100.00;98292.03;5024237;28;19917;-83
2022/09/29 15:04:04;;;;;;;;;;;;;;;5.09;100.00;98294.66;5024691;28;19971;-87
2022/09/29 15:06:29;;;;;;;;;;;;;;;4.99;100.00;98294.19;5042007;28;20296;-87
2022/09/29 15:09:03;;;;;;;;;;;;;;;4.97;100.00;98300.44;5034038;28;19917;-85
2022/09/29 15:11:40;;;;;;;;;;;;;;;4.98;100.00;98302.13;5034210;28;19917;-86
2022/09/29 15:14:25;;;;;;;;;;;;;;;5.01;100.00;98302.00;5038360;28;19924;-87
2022/09/29 15:17:06;;;;;;;;;;;;;;;5.02;100.00;98304.53;5022059;28;19939;-87
2022/09/29 15:19:50;;;;;;;;;;;;;;;5.09;100.00;98305.16;5040990;28;20019;-87
2022/09/29 15:22:21;;;;;;;;;;;;;;;5.04;100.00;98309.72;5042001;28;20287;-85
2022/09/29 15:24:58;;;;;;;;;;;;;;;5.03;100.00;98314.13;5039408;28;19943;-84
2022/09/29 15:27:28;;;;;;;;;;;;;;;5.00;100.00;98316.91;5027069;28;19960;-87
2022/09/29 15:29:55;;;;;;;;;;;;;;;5.03;100.00;98321.19;5017652;28;20395;-87
2022/09/29 15:32:51;;;;;;;;;;;;;;;4.97;100.00;98327.53;5031336;28;19921;-89
2022/09/29 15:35:21;;;;;;;;;;;;;;;4.97;100.00;98329.31;5032035;28;19975;-87
2022/09/29 15:37:47;;;;;;;;;;;;;;;4.97;100.00;98331.94;5036200;28;19921;-86
2022/09/29 15:40:16;;;;;;;;;;;;;;;5.01;100.00;98333.50;5021850;28;20398;-87
2022/09/29 15:43:06;;;;;;;;;;;;;;;5.04;100.00;98344.75;5021169;28;19917;-86
2022/09/29 15:45:31;;;;;;;;;;;;;;;5.03;100.00;98343.03;5021961;28;19921;-86
2022/09/29 15:48:15;;;;;;;;;;;;;;;5.06;100.00;98344.66;5019032;28;19927;-85
2022/09/29 15:50:41;;;;;;;;;;;;;;;5.06;100.00;98344.66;5030606;28;20299;-88
2022/09/29 15:53:09;;;;;;;;;;;;;;;5.04;100.00;98354.38;5033620;28;20011;-86
2022/09/29 15:55:34;;;;;;;;;;;;;;;5.04;100.00;98357.00;5040248;28;20108;-86
2022/09/29 15:58:23;;;;;;;;;;;;;;;4.99;100.00;98351.94;5019453;28;19929;-87
2022/09/29 16:00:57;;;;;;;;;;;;;;;5.01;100.00;98365.88;5028531;28;19925;-84
2022/09/29 16:03:51;;;;;;;;;;;;;;;5.01;100.00;98365.88;5018449;28;19921;-86
2022/09/29 16:06:37;;;;;;;;;;;;;;;5.01;100.00;98365.88;5017053;28;19925;-85
2022/09/29 16:09:13;;;;;;;;;;;;;;;5.06;100.00;98373.56;5030703;28;19925;-84
2022/09/29 16:11:38;;;;;;;;;;;;;;;5.04;100.00;98371.00;5027558;28;19929;-87
2022/09/29 16:14:17;;;;;;;;;;;;;;;4.99;100.00;98370.31;5018622;28;20303;-86
2022/09/29 16:16:43;;;;;;;;;;;;;;;5.03;100.00;98373.69;5036994;28;20006;-85
2022/09/29 16:19:14;;;;;;;;;;;;;;;5.02;100.00;98383.31;5038141;28;19917;-84
2022/09/29 16:22:07;;;;;;;;;;;;;;;5.01;100.00;98381.63;5031220;28;19944;-87
2022/09/29 16:24:34;;;;;;;;;;;;;;;4.97;100.00;98385.28;5031768;28;20056;-87
2022/09/29 16:27:02;;;;;;;;;;;;;;;5.05;100.00;98385.81;5041296;28;20011;-88
2022/09/29 16:29:31;;;;;;;;;;;;;;;5.05;100.00;98392.84;5017971;28;20418;-85
2022/09/29 16:31:57;;;;;;;;;;;;;;;5.11;100.00;98395.22;5018775;28;19921;-87
2022/09/29 16:34:30;;;;;;;;;;;;;;;5.07;100.00;98401.50;5044511;28;19921;-85
2022/09/29 16:36:57;;;;;;;;;;;;;;;5.09;100.00;98397.06;5030215;28;19944;-84
2022/09/29 16:39:31;;;;;;;;;;;;;;;5.04;100.00;98392.00;5032768;28;20019;-85
2022/09/29 16:45:00;;;;;;;;;;;;;;;5.05;100.00;98398.09;5067714;23;20460;-87
2022/09/29 16:47:51;;;;;;;;;;;;;;;5.07;100.00;98401.50;5006303;28;20000;-89
2022/09/29 16:50:18;;;;;;;;;;;;;;;5.11;100.00;98399.63;5017203;28;19921;-88
2022/09/29 16:52:45;;;;;;;;;;;;;;;5.08;100.00;98408.47;5019204;28;19922;-87
2022/09/29 16:55:27;;;;;;;;;;;;;;;5.04;100.00;98407.75;5007088;28;19924;-88
2022/09/29 16:58:07;;;;;;;;;;;;;;;5.04;100.00;98405.13;5004426;28;19927;-89
2022/09/29 17:00:32;;;;;;;;;;;;;;;5.11;100.00;98408.34;5018056;28;19928;-87
2022/09/29 17:03:04;;;;;;;;;;;;;;;5.01;100.00;98407.88;5004422;28;20280;-88
2022/09/29 17:05:33;;;;;;;;;;;;;;;5.03;100.00;98410.44;5022989;28;19953;-87
2022/09/29 17:08:03;;;;;;;;;;;;;;;5.09;100.00;98410.19;5006492;28;19928;-87
2022/09/29 17:10:32;;;;;;;;;;;;;;;5.07;100.00;98415.50;5018217;28;20364;-87
2022/09/29 17:12:57;;;;;;;;;;;;;;;5.13;100.00;98422.25;5003907;28;19921;-90
2022/09/29 17:15:40;;;;;;;;;;;;;;;5.10;100.00;98409.25;5022720;28;19983;-91
2022/09/29 17:18:11;;;;;;;;;;;;;;;5.02;100.00;98419.22;5004610;28;19971;-87
2022/09/29 17:20:36;;;;;;;;;;;;;;;5.08;100.00;98422.44;4979688;28;19968;-90
2022/09/29 17:23:03;;;;;;;;;;;;;;;5.12;100.00;98423.16;4965664;28;19922;-88
2022/09/29 17:25:29;;;;;;;;;;;;;;;5.15;100.00;98425.66;4966122;28;19925;-88
2022/09/29 17:28:14;;;;;;;;;;;;;;;5.12;100.00;98422.31;4961996;28;19926;-89
2022/09/29 17:31:28;;;;;;;;;;;;;;;;;;;;;
2022/09/29 17:33:53;;;;;;;;;;;;;;;5.07;100.00;98426.00;4868793;29;19924;-89
2022/09/29 17:36:24;;;;;;;;;;;;;;;5.09;100.00;98434.66;4962890;28;19922;-90
2022/09/29 17:38:53;;;;;;;;;;;;;;;5.14;100.00;98439.72;4978041;28;19917;-90
2022/09/29 17:41:19;;;;;;;;;;;;;;;5.17;100.00;98444.84;4958055;28;19926;-88
2022/09/29 17:43:47;;;;;;;;;;;;;;;5.12;100.00;98452.03;4974236;28;20388;-91
2022/09/29 17:49:34;;;;;;;;;;;;;;;5.03;100.00;98463.78;5022787;28;19928;-89
2022/09/29 17:51:59;;;;;;;;;;;;;;;5.05;100.00;98469.81;5001633;28;20405;-90
2022/09/29 17:54:27;;;;;;;;;;;;;;;5.06;100.00;98466.28;5022834;28;20362;-89
2022/09/29 17:56:52;;;;;;;;;;;;;;;5.01;100.00;98465.63;5019012;28;20462;-86
2022/09/29 17:59:17;;;;;;;;;;;;;;;5.00;100.00;98469.16;5003955;28;19964;-86
2022/09/29 18:01:43;;;;;;;;;;;;;;;5.07;100.00;98475.00;5007642;28;19924;-88
2022/09/29 18:04:15;;;;;;;;;;;;;;;5.05;100.00;98476.84;5004789;28;19918;-88
2022/09/29 18:07:25;;;;;;;;;;;;;;;5.08;100.00;98476.72;5001643;28;19931;-87
2022/09/29 18:09:51;;;;;;;;;;;;;;;5.05;100.00;98477.69;5023405;28;19921;-90
2022/09/29 18:12:25;;;;;;;;;;;;;;;5.03;100.00;98486.56;5003483;28;19924;-88
2022/09/29 18:15:09;;;;;;;;;;;;;;;;;;;;;
2022/09/29 18:17:35;;;;;;;;;;;;;;;5.06;100.00;98489.06;5020699;28;20376;-87
2022/09/29 18:20:09;;;;;;;;;;;;;;;5.05;100.00;98489.97;5005972;28;20008;-86
2022/09/29 18:22:36;;;;;;;;;;;;;;;5.03;100.00;98494.44;5020434;28;19968;-86
2022/09/29 18:25:02;;;;;;;;;;;;;;;4.97;100.00;98495.53;5021706;28;20008;-89
2022/09/29 18:27:29;;;;;;;;;;;;;;;5.02;100.00;98498.81;5003068;28;20492;-87
2022/09/29 18:29:54;;;;;;;;;;;;;;;4.93;100.00;98495.72;5004848;28;19917;-87
2022/09/29 18:32:19;;;;;;;;;;;;;;;4.97;100.00;98498.16;5020817;28;19931;-88
2022/09/29 18:34:45;;;;;;;;;;;;;;;5.05;100.00;98503.09;5010925;23;19933;-88
2022/09/29 18:37:15;;;;;;;;;;;;;;;5.06;100.00;98504.81;5021769;28;19925;-87
2022/09/29 18:39:43;;;;;;;;;;;;;;;6.46;100.00;98501.41;5010368;28;19928;-88
2022/09/29 18:42:09;;;;;;;;;;;;;;;5.55;100.00;98515.03;5019343;28;19947;-88
2022/09/29 18:44:37;;;;;;;;;;;;;;;5.26;100.00;98519.75;5012708;28;19925;-88
2022/09/29 18:47:05;;;;;;;;;;;;;;;5.19;100.00;98524.41;5021486;28;20284;-87
2022/09/29 18:49:39;;;;;;;;;;;;;;;5.15;100.00;98527.22;5023436;28;19924;-86
2022/09/29 18:52:05;;;;;;;;;;;;;;;5.09;100.00;98531.81;5010622;28;19964;-87
2022/09/29 18:54:32;;;;;;;;;;;;;;;5.08;100.00;98529.25;5013218;28;19971;-88
2022/09/29 18:57:01;;;;;;;;;;;;;;;5.12;100.00;98537.84;5004304;28;19921;-89
2022/09/29 18:59:31;;;;;;;;;;;;;;;5.06;100.00;98541.59;5012375;28;19964;-88
2022/09/29 19:01:56;;;;;;;;;;;;;;;5.07;100.00;98543.28;5013987;28;19976;-88
2022/09/29 19:04:26;;;;;;;;;;;;;;;5.07;100.00;98552.03;5021222;28;20273;-88
2022/09/29 19:06:52;;;;;;;;;;;;;;;5.06;100.00;98550.31;5002747;28;20324;-88
2022/09/29 19:09:22;;;;;;;;;;;;;;;4.99;100.00;98564.59;5010859;28;19925;-92
2022/09/29 19:11:48;;;;;;;;;;;;;;;4.98;100.00;98560.25;5010080;28;19937;-88
2022/09/29 19:14:14;;;;;;;;;;;;;;;5.01;100.00;98570.66;5023266;28;19917;-89
2022/09/29 19:16:39;;;;;;;;;;;;;;;5.02;100.00;98576.75;5012095;28;19920;-89
2022/09/29 19:19:07;;;;;;;;;;;;;;;5.08;100.00;98574.72;5019070;28;19932;-85
2022/09/29 19:21:41;;;;;;;;;;;;;;;5.04;100.00;98585.41;5004891;28;19921;-88
2022/09/29 19:24:06;;;;;;;;;;;;;;;4.99;100.00;98590.00;5004939;28;20280;-88
2022/09/29 19:29:40;;;;;;;;;;;;;;;4.97;100.00;98583.94;4966598;28;19921;-89
2022/09/29 19:32:05;;;;;;;;;;;;;;;4.95;100.00;98593.66;5022085;28;20088;-90
2022/09/29 19:37:23;;;;;;;;;;;;;;;4.99;100.00;98595.25;5074689;23;19936;-91
2022/09/29 19:39:51;;;;;;;;;;;;;;;4.97;100.00;98594.47;5030848;28;19968;-90
2022/09/29 19:45:36;;;;;;;;;;;;;;;4.94;100.00;98599.81;5032273;28;19921;-88
2022/09/29 19:48:03;;;;;;;;;;;;;;;6.00;100.00;98590.28;5028493;28;20017;-91
2022/09/29 19:53:18;;;;;;;;;;;;;;;5.14;100.00;98602.53;5031733;28;19967;-91
2022/09/29 19:55:44;;;;;;;;;;;;;;;5.04;100.00;98607.28;5030544;28;19928;-91
2022/09/29 19:58:19;;;;;;;;;;;;;;;5.07;100.00;98611.53;5013159;28;19925;-91
2022/09/29 20:00:53;;;;;;;;;;;;;;;4.98;100.00;98610.16;5030541;28;19925;-89
2022/09/29 20:03:19;;;;;;;;;;;;;;;4.95;100.00;98612.03;5013947;28;20078;-90
2022/09/29 20:05:44;;;;;;;;;;;;;;;4.99;100.00;98611.00;5014159;28;20400;-91
2022/09/29 20:08:10;;;;;;;;;;;;;;;4.98;100.00;98619.78;5017654;28;19917;-92
2022/09/29 20:13:23;;;;;;;;;;;;;;;4.88;100.00;98622.78;4989907;28;19963;-91
2022/09/29 20:15:50;;;;;;;;;;;;;;;4.97;100.00;98628.59;5018400;28;19960;-91
2022/09/29 20:18:15;;;;;;;;;;;;;;;4.93;100.00;98633.09;5025925;28;19913;-91
2022/09/29 20:20:41;;;;;;;;;;;;;;;4.90;100.00;98636.69;5018703;28;20380;-91
2022/09/29 20:23:11;;;;;;;;;;;;;;;4.91;100.00;98643.66;5035788;28;19923;-92
2022/09/29 20:25:36;;;;;;;;;;;;;;;4.86;100.00;98640.34;5017153;28;19976;-93
2022/09/29 20:28:02;;;;;;;;;;;;;;;4.92;100.00;98644.50;5034167;28;19960;-92
2022/09/29 20:30:30;;;;;;;;;;;;;;;4.88;100.00;98645.53;5034203;28;19931;-92
2022/09/29 20:32:55;;;;;;;;;;;;;;;4.88;100.00;98645.53;5033065;28;19928;-90
2022/09/29 20:35:48;;;;;;;;;;;;;;;4.87;100.00;98649.94;5016535;28;19925;-91
2022/09/29 20:38:14;;;;;;;;;;;;;;;4.82;100.00;98644.00;5004069;28;19928;-89
2022/09/29 20:40:39;;;;;;;;;;;;;;;4.78;100.00;98642.38;5016049;28;19921;-90
2022/09/29 20:43:05;;;;;;;;;;;;;;;4.86;100.00;98647.34;5016773;28;19925;-91
2022/09/29 20:45:30;;;;;;;;;;;;;;;4.87;100.00;98649.94;5017804;28;19917;-91